sensor_id;sensor_type;location;lat;lon;timestamp;P1;durP1;ratioP1;P2;durP2;ratioP2
16430;SDS011;8325;49.284;7.238;2023-12-22T05:03:19;4.47;;;1.60;;
16430;SDS011;8325;49.284;7.238;2023-12-22T05:07:31;8.85;;;1.63;;
16430;SDS011;8325;49.284;7.238;2023-12-22T05:11:42;6.88;;;1.90;;
16430;SDS011;8325;49.284;7.238;2023-12-22T05:15:54;9.35;;;2.00;;
16430;SDS011;8325;49.284;7.238;2023-12-22T05:20:06;6.30;;;1.88;;
16430;SDS011;8325;49.284;7.238;2023-12-22T05:24:18;9.43;;;1.80;;
16430;SDS011;8325;49.284;7.238;2023-12-22T05:28:30;9.32;;;2.05;;
16430;SDS011;8325;49.284;7.238;2023-12-22T05:32:42;7.10;;;1.65;;
16430;SDS011;8325;49.284;7.238;2023-12-22T05:36:54;6.93;;;2.10;;
16430;SDS011;8325;49.284;7.238;2023-12-22T05:41:06;7.07;;;1.73;;
16430;SDS011;8325;49.284;7.238;2023-12-22T05:45:17;4.47;;;1.67;;
16430;SDS011;8325;49.284;7.238;2023-12-22T05:49:30;6.80;;;1.67;;
16430;SDS011;8325;49.284;7.238;2023-12-22T05:53:42;3.92;;;1.83;;
16430;SDS011;8325;49.284;7.238;2023-12-22T05:57:53;6.30;;;2.28;;
16430;SDS011;8325;49.284;7.238;2023-12-22T06:02:06;7.32;;;1.67;;
16430;SDS011;8325;49.284;7.238;2023-12-22T06:06:18;7.43;;;2.67;;
16430;SDS011;8325;49.284;7.238;2023-12-22T06:10:29;4.47;;;1.85;;
16430;SDS011;8325;49.284;7.238;2023-12-22T06:14:41;5.53;;;1.90;;
16430;SDS011;8325;49.284;7.238;2023-12-22T06:18:53;4.30;;;1.77;;
16430;SDS011;8325;49.284;7.238;2023-12-22T06:23:04;7.57;;;2.17;;
16430;SDS011;8325;49.284;7.238;2023-12-22T06:27:16;7.95;;;1.98;;
16430;SDS011;8325;49.284;7.238;2023-12-22T06:31:28;7.65;;;2.05;;
16430;SDS011;8325;49.284;7.238;2023-12-22T06:35:39;4.47;;;1.92;;
16430;SDS011;8325;49.284;7.238;2023-12-22T06:39:52;6.38;;;2.42;;
16430;SDS011;8325;49.284;7.238;2023-12-22T06:44:04;7.63;;;2.40;;
16430;SDS011;8325;49.284;7.238;2023-12-22T06:48:16;7.60;;;2.15;;
16430;SDS011;8325;49.284;7.238;2023-12-22T06:52:28;5.38;;;2.10;;
16430;SDS011;8325;49.284;7.238;2023-12-22T06:56:39;12.40;;;2.33;;
16430;SDS011;8325;49.284;7.238;2023-12-22T07:00:51;7.78;;;2.38;;
16430;SDS011;8325;49.284;7.238;2023-12-22T07:13:32;7.57;;;2.67;;
16430;SDS011;8325;49.284;7.238;2023-12-22T07:17:44;11.77;;;2.90;;
16430;SDS011;8325;49.284;7.238;2023-12-22T07:21:56;14.68;;;4.22;;
16430;SDS011;8325;49.284;7.238;2023-12-22T07:26:07;14.70;;;4.55;;
16430;SDS011;8325;49.284;7.238;2023-12-22T07:30:23;10.82;;;3.58;;
16430;SDS011;8325;49.284;7.238;2023-12-22T07:34:34;10.80;;;3.17;;
16430;SDS011;8325;49.284;7.238;2023-12-22T07:38:49;12.07;;;2.83;;
16430;SDS011;8325;49.284;7.238;2023-12-22T07:43:00;13.45;;;2.60;;
16430;SDS011;8325;49.284;7.238;2023-12-22T07:47:12;12.65;;;2.70;;
16430;SDS011;8325;49.284;7.238;2023-12-22T07:51:25;13.95;;;2.72;;
16430;SDS011;8325;49.284;7.238;2023-12-22T07:55:37;9.60;;;2.65;;
16430;SDS011;8325;49.284;7.238;2023-12-22T07:59:50;10.88;;;2.80;;
16430;SDS011;8325;49.284;7.238;2023-12-22T08:04:01;13.20;;;2.83;;
16430;SDS011;8325;49.284;7.238;2023-12-22T08:08:13;10.10;;;2.50;;
16430;SDS011;8325;49.284;7.238;2023-12-22T08:12:24;8.15;;;2.30;;
16430;SDS011;8325;49.284;7.238;2023-12-22T08:16:37;10.27;;;2.60;;
16430;SDS011;8325;49.284;7.238;2023-12-22T08:20:48;7.95;;;2.78;;
16430;SDS011;8325;49.284;7.238;2023-12-22T08:25:02;12.95;;;2.90;;
16430;SDS011;8325;49.284;7.238;2023-12-22T08:29:13;15.60;;;3.03;;
16430;SDS011;8325;49.284;7.238;2023-12-22T08:33:26;13.15;;;3.42;;
16430;SDS011;8325;49.284;7.238;2023-12-22T08:37:37;13.85;;;4.07;;
16430;SDS011;8325;49.284;7.238;2023-12-22T08:41:49;8.93;;;2.58;;
16430;SDS011;8325;49.284;7.238;2023-12-22T08:46:02;9.27;;;2.75;;
16430;SDS011;8325;49.284;7.238;2023-12-22T08:50:13;12.80;;;2.63;;
16430;SDS011;8325;49.284;7.238;2023-12-22T08:54:25;11.82;;;2.25;;
16430;SDS011;8325;49.284;7.238;2023-12-22T08:58:37;14.02;;;3.13;;
16430;SDS011;8325;49.284;7.238;2023-12-22T09:02:49;14.95;;;3.42;;
16430;SDS011;8325;49.284;7.238;2023-12-22T09:07:01;13.57;;;2.47;;
16430;SDS011;8325;49.284;7.238;2023-12-22T09:11:13;10.77;;;2.53;;
16430;SDS011;8325;49.284;7.238;2023-12-22T09:15:28;11.32;;;2.40;;
16430;SDS011;8325;49.284;7.238;2023-12-22T09:19:39;8.43;;;2.90;;
16430;SDS011;8325;49.284;7.238;2023-12-22T09:23:51;8.77;;;2.50;;
16430;SDS011;8325;49.284;7.238;2023-12-22T09:28:03;12.45;;;3.13;;
16430;SDS011;8325;49.284;7.238;2023-12-22T09:32:15;13.25;;;3.20;;
16430;SDS011;8325;49.284;7.238;2023-12-22T09:36:26;10.10;;;3.30;;
16430;SDS011;8325;49.284;7.238;2023-12-22T09:40:38;9.05;;;2.60;;
16430;SDS011;8325;49.284;7.238;2023-12-22T09:44:50;7.95;;;2.10;;
16430;SDS011;8325;49.284;7.238;2023-12-22T09:49:07;7.05;;;1.60;;
16430;SDS011;8325;49.284;7.238;2023-12-22T09:53:19;13.48;;;3.08;;
16430;SDS011;8325;49.284;7.238;2023-12-22T09:57:31;7.28;;;2.22;;
16430;SDS011;8325;49.284;7.238;2023-12-22T10:01:45;7.00;;;2.53;;
16430;SDS011;8325;49.284;7.238;2023-12-22T10:05:58;9.32;;;1.88;;
16430;SDS011;8325;49.284;7.238;2023-12-22T10:10:11;9.13;;;2.20;;
16430;SDS011;8325;49.284;7.238;2023-12-22T10:14:23;5.38;;;1.73;;
16430;SDS011;8325;49.284;7.238;2023-12-22T10:18:35;6.35;;;1.65;;
16430;SDS011;8325;49.284;7.238;2023-12-22T10:22:47;8.18;;;1.92;;
16430;SDS011;8325;49.284;7.238;2023-12-22T10:26:59;6.75;;;2.20;;
16430;SDS011;8325;49.284;7.238;2023-12-22T10:31:10;6.10;;;1.98;;
16430;SDS011;8325;49.284;7.238;2023-12-22T10:35:22;4.57;;;1.48;;
16430;SDS011;8325;49.284;7.238;2023-12-22T10:39:35;2.33;;;1.08;;
16430;SDS011;8325;49.284;7.238;2023-12-22T10:43:47;4.78;;;1.70;;
16430;SDS011;8325;49.284;7.238;2023-12-22T10:48:02;5.35;;;1.63;;
16430;SDS011;8325;49.284;7.238;2023-12-22T10:52:15;2.13;;;1.25;;
16430;SDS011;8325;49.284;7.238;2023-12-22T10:56:29;5.70;;;1.20;;
16430;SDS011;8325;49.284;7.238;2023-12-22T11:00:41;2.65;;;1.27;;
16430;SDS011;8325;49.284;7.238;2023-12-22T11:05:05;4.28;;;1.20;;
16430;SDS011;8325;49.284;7.238;2023-12-22T11:09:20;1.60;;;0.80;;
16430;SDS011;8325;49.284;7.238;2023-12-22T11:13:33;2.90;;;1.23;;
16430;SDS011;8325;49.284;7.238;2023-12-22T11:17:46;2.70;;;0.93;;
16430;SDS011;8325;49.284;7.238;2023-12-22T11:22:00;1.13;;;0.77;;
16430;SDS011;8325;49.284;7.238;2023-12-22T11:26:13;1.55;;;0.75;;
16430;SDS011;8325;49.284;7.238;2023-12-22T11:30:26;0.80;;;0.70;;
16430;SDS011;8325;49.284;7.238;2023-12-22T11:34:38;2.28;;;0.88;;
16430;SDS011;8325;49.284;7.238;2023-12-22T11:38:53;1.27;;;0.73;;
16430;SDS011;8325;49.284;7.238;2023-12-22T11:43:05;1.42;;;0.82;;
16430;SDS011;8325;49.284;7.238;2023-12-22T11:47:18;2.42;;;0.98;;
16430;SDS011;8325;49.284;7.238;2023-12-22T11:51:34;4.47;;;0.80;;
16430;SDS011;8325;49.284;7.238;2023-12-22T11:55:55;2.17;;;1.60;;
16430;SDS011;8325;49.284;7.238;2023-12-22T12:04:34;1.80;;;0.70;;
16430;SDS011;8325;49.284;7.238;2023-12-22T12:08:46;1.45;;;1.33;;
16430;SDS011;8325;49.284;7.238;2023-12-22T12:13:09;2.63;;;0.90;;
16430;SDS011;8325;49.284;7.238;2023-12-22T12:17:21;2.80;;;1.75;;
16430;SDS011;8325;49.284;7.238;2023-12-22T12:21:33;2.70;;;1.10;;
16430;SDS011;8325;49.284;7.238;2023-12-22T12:25:45;9.82;;;8.85;;
16430;SDS011;8325;49.284;7.238;2023-12-22T12:29:58;1.73;;;1.60;;
16430;SDS011;8325;49.284;7.238;2023-12-22T12:34:17;5.47;;;4.90;;
16430;SDS011;8325;49.284;7.238;2023-12-22T12:43:18;2.47;;;1.55;;
16430;SDS011;8325;49.284;7.238;2023-12-22T12:47:30;1.33;;;0.70;;
16430;SDS011;8325;49.284;7.238;2023-12-22T12:51:43;0.90;;;0.57;;
16430;SDS011;8325;49.284;7.238;2023-12-22T12:55:56;1.58;;;0.70;;
16430;SDS011;8325;49.284;7.238;2023-12-22T13:00:08;0.73;;;0.73;;
16430;SDS011;8325;49.284;7.238;2023-12-22T13:04:20;0.90;;;0.65;;
16430;SDS011;8325;49.284;7.238;2023-12-22T13:08:32;1.88;;;1.17;;
16430;SDS011;8325;49.284;7.238;2023-12-22T13:12:53;0.50;;;0.50;;
16430;SDS011;8325;49.284;7.238;2023-12-22T13:17:05;0.70;;;0.60;;
16430;SDS011;8325;49.284;7.238;2023-12-22T13:21:17;0.82;;;0.60;;
16430;SDS011;8325;49.284;7.238;2023-12-22T13:25:37;1.25;;;0.85;;
16430;SDS011;8325;49.284;7.238;2023-12-22T13:29:52;0.50;;;0.50;;
16430;SDS011;8325;49.284;7.238;2023-12-22T13:34:03;1.63;;;0.75;;
16430;SDS011;8325;49.284;7.238;2023-12-22T13:38:22;1.60;;;1.50;;
16430;SDS011;8325;49.284;7.238;2023-12-22T13:42:34;1.00;;;0.90;;
16430;SDS011;8325;49.284;7.238;2023-12-22T13:46:46;0.93;;;0.70;;
16430;SDS011;8325;49.284;7.238;2023-12-22T13:50:58;0.70;;;0.70;;
16430;SDS011;8325;49.284;7.238;2023-12-22T13:59:32;1.10;;;0.70;;
16430;SDS011;8325;49.284;7.238;2023-12-22T14:03:44;1.08;;;0.70;;
16430;SDS011;8325;49.284;7.238;2023-12-22T14:07:56;0.70;;;0.55;;
16430;SDS011;8325;49.284;7.238;2023-12-22T14:12:08;2.65;;;0.85;;
16430;SDS011;8325;49.284;7.238;2023-12-22T14:16:25;1.00;;;0.80;;
16430;SDS011;8325;49.284;7.238;2023-12-22T14:20:37;0.47;;;0.47;;
16430;SDS011;8325;49.284;7.238;2023-12-22T14:24:49;0.75;;;0.52;;
16430;SDS011;8325;49.284;7.238;2023-12-22T14:29:00;0.45;;;0.45;;
16430;SDS011;8325;49.284;7.238;2023-12-22T14:33:12;1.05;;;0.88;;
16430;SDS011;8325;49.284;7.238;2023-12-22T14:37:24;0.98;;;0.70;;
16430;SDS011;8325;49.284;7.238;2023-12-22T14:41:37;0.93;;;0.80;;
16430;SDS011;8325;49.284;7.238;2023-12-22T14:45:48;0.80;;;0.60;;
16430;SDS011;8325;49.284;7.238;2023-12-22T14:50:00;1.02;;;0.70;;
16430;SDS011;8325;49.284;7.238;2023-12-22T14:54:15;1.33;;;0.80;;
16430;SDS011;8325;49.284;7.238;2023-12-22T14:58:27;1.58;;;0.50;;
16430;SDS011;8325;49.284;7.238;2023-12-22T15:02:39;0.90;;;0.70;;
16430;SDS011;8325;49.284;7.238;2023-12-22T15:06:51;0.57;;;0.57;;
16430;SDS011;8325;49.284;7.238;2023-12-22T15:11:12;0.70;;;0.60;;
16430;SDS011;8325;49.284;7.238;2023-12-22T15:15:24;0.65;;;0.50;;
16430;SDS011;8325;49.284;7.238;2023-12-22T15:19:39;2.40;;;0.70;;
16430;SDS011;8325;49.284;7.238;2023-12-22T15:23:52;1.52;;;0.75;;
16430;SDS011;8325;49.284;7.238;2023-12-22T15:28:04;2.00;;;0.90;;
16430;SDS011;8325;49.284;7.238;2023-12-22T15:32:16;1.92;;;0.70;;
16430;SDS011;8325;49.284;7.238;2023-12-22T15:36:28;1.88;;;0.95;;
16430;SDS011;8325;49.284;7.238;2023-12-22T15:40:40;3.10;;;0.80;;
16430;SDS011;8325;49.284;7.238;2023-12-22T15:44:52;1.02;;;0.73;;
16430;SDS011;8325;49.284;7.238;2023-12-22T15:49:03;1.60;;;0.88;;
16430;SDS011;8325;49.284;7.238;2023-12-22T15:53:15;1.40;;;1.10;;
16430;SDS011;8325;49.284;7.238;2023-12-22T15:57:27;1.38;;;0.80;;
16430;SDS011;8325;49.284;7.238;2023-12-22T16:01:42;0.77;;;0.60;;
16430;SDS011;8325;49.284;7.238;2023-12-22T16:05:54;1.45;;;1.00;;
16430;SDS011;8325;49.284;7.238;2023-12-22T16:10:07;2.70;;;1.08;;
16430;SDS011;8325;49.284;7.238;2023-12-22T16:14:19;1.30;;;0.93;;
16430;SDS011;8325;49.284;7.238;2023-12-22T16:18:31;1.33;;;0.70;;
16430;SDS011;8325;49.284;7.238;2023-12-22T16:22:42;1.50;;;0.80;;
16430;SDS011;8325;49.284;7.238;2023-12-22T16:26:54;1.67;;;0.88;;
16430;SDS011;8325;49.284;7.238;2023-12-22T16:35:42;1.33;;;1.08;;
16430;SDS011;8325;49.284;7.238;2023-12-22T16:39:54;1.63;;;1.33;;
16430;SDS011;8325;49.284;7.238;2023-12-22T16:44:06;1.00;;;0.80;;
16430;SDS011;8325;49.284;7.238;2023-12-22T16:48:17;2.45;;;0.98;;
16430;SDS011;8325;49.284;7.238;2023-12-22T16:52:29;2.50;;;0.93;;
16430;SDS011;8325;49.284;7.238;2023-12-22T16:56:41;2.25;;;0.80;;
16430;SDS011;8325;49.284;7.238;2023-12-22T17:00:52;1.77;;;0.85;;
16430;SDS011;8325;49.284;7.238;2023-12-22T17:05:24;1.30;;;0.80;;
16430;SDS011;8325;49.284;7.238;2023-12-22T17:09:36;1.92;;;1.10;;
16430;SDS011;8325;49.284;7.238;2023-12-22T17:13:48;2.88;;;1.17;;
16430;SDS011;8325;49.284;7.238;2023-12-22T17:17:59;2.47;;;1.05;;
16430;SDS011;8325;49.284;7.238;2023-12-22T17:22:11;2.63;;;1.55;;
16430;SDS011;8325;49.284;7.238;2023-12-22T17:26:23;3.00;;;1.02;;
16430;SDS011;8325;49.284;7.238;2023-12-22T17:30:34;1.23;;;0.70;;
16430;SDS011;8325;49.284;7.238;2023-12-22T17:34:46;1.38;;;0.90;;
16430;SDS011;8325;49.284;7.238;2023-12-22T17:38:58;1.40;;;0.90;;
16430;SDS011;8325;49.284;7.238;2023-12-22T17:43:10;2.08;;;0.80;;
16430;SDS011;8325;49.284;7.238;2023-12-22T17:47:21;2.47;;;0.90;;
16430;SDS011;8325;49.284;7.238;2023-12-22T17:51:33;1.52;;;1.00;;
16430;SDS011;8325;49.284;7.238;2023-12-22T17:55:44;4.00;;;1.30;;
16430;SDS011;8325;49.284;7.238;2023-12-22T17:59:56;2.45;;;1.17;;
16430;SDS011;8325;49.284;7.238;2023-12-22T18:04:07;1.83;;;1.13;;
16430;SDS011;8325;49.284;7.238;2023-12-22T18:08:28;4.40;;;2.10;;
16430;SDS011;8325;49.284;7.238;2023-12-22T18:12:40;2.90;;;2.03;;
16430;SDS011;8325;49.284;7.238;2023-12-22T18:16:51;3.58;;;2.10;;
16430;SDS011;8325;49.284;7.238;2023-12-22T18:21:03;4.53;;;1.45;;
16430;SDS011;8325;49.284;7.238;2023-12-22T18:25:15;1.80;;;1.10;;
16430;SDS011;8325;49.284;7.238;2023-12-22T18:29:27;2.80;;;1.60;;
16430;SDS011;8325;49.284;7.238;2023-12-22T18:33:40;1.90;;;1.10;;
16430;SDS011;8325;49.284;7.238;2023-12-22T18:37:52;1.50;;;1.02;;
16430;SDS011;8325;49.284;7.238;2023-12-22T18:42:04;3.25;;;1.25;;
16430;SDS011;8325;49.284;7.238;2023-12-22T18:46:16;1.33;;;0.90;;
16430;SDS011;8325;49.284;7.238;2023-12-22T19:10:46;2.58;;;1.40;;
16430;SDS011;8325;49.284;7.238;2023-12-22T19:14:57;3.95;;;1.48;;
16430;SDS011;8325;49.284;7.238;2023-12-22T19:19:09;4.85;;;1.38;;
16430;SDS011;8325;49.284;7.238;2023-12-22T19:23:21;1.67;;;1.02;;
16430;SDS011;8325;49.284;7.238;2023-12-22T19:27:35;1.70;;;1.40;;
16430;SDS011;8325;49.284;7.238;2023-12-22T19:31:47;5.40;;;2.17;;
16430;SDS011;8325;49.284;7.238;2023-12-22T19:35:59;3.05;;;1.02;;
16430;SDS011;8325;49.284;7.238;2023-12-22T19:40:18;3.28;;;1.27;;
16430;SDS011;8325;49.284;7.238;2023-12-22T19:45:04;3.17;;;1.45;;
16430;SDS011;8325;49.284;7.238;2023-12-22T19:49:16;3.85;;;1.17;;
16430;SDS011;8325;49.284;7.238;2023-12-22T19:53:29;2.10;;;1.30;;
16430;SDS011;8325;49.284;7.238;2023-12-22T19:57:44;2.15;;;1.10;;
16430;SDS011;8325;49.284;7.238;2023-12-22T20:01:59;3.25;;;1.48;;
16430;SDS011;8325;49.284;7.238;2023-12-22T20:06:12;2.47;;;1.15;;
16430;SDS011;8325;49.284;7.238;2023-12-22T20:10:28;2.90;;;1.27;;
16430;SDS011;8325;49.284;7.238;2023-12-22T20:14:42;2.80;;;1.50;;
16430;SDS011;8325;49.284;7.238;2023-12-22T20:18:53;2.65;;;1.48;;
16430;SDS011;8325;49.284;7.238;2023-12-22T20:23:13;4.72;;;1.55;;
16430;SDS011;8325;49.284;7.238;2023-12-22T20:27:26;4.03;;;1.40;;
16430;SDS011;8325;49.284;7.238;2023-12-22T20:31:38;4.72;;;1.58;;
16430;SDS011;8325;49.284;7.238;2023-12-22T20:35:50;4.82;;;1.48;;
16430;SDS011;8325;49.284;7.238;2023-12-22T20:40:06;5.05;;;1.80;;
16430;SDS011;8325;49.284;7.238;2023-12-22T20:44:26;3.00;;;1.75;;
16430;SDS011;8325;49.284;7.238;2023-12-22T20:48:52;4.45;;;1.33;;
16430;SDS011;8325;49.284;7.238;2023-12-22T20:53:22;3.28;;;1.80;;
16430;SDS011;8325;49.284;7.238;2023-12-22T20:58:23;3.55;;;1.35;;
16430;SDS011;8325;49.284;7.238;2023-12-22T21:08:29;5.57;;;1.75;;
16430;SDS011;8325;49.284;7.238;2023-12-22T21:12:41;7.28;;;2.03;;
16430;SDS011;8325;49.284;7.238;2023-12-22T21:16:53;2.47;;;1.20;;
16430;SDS011;8325;49.284;7.238;2023-12-22T21:21:05;2.35;;;1.30;;
16430;SDS011;8325;49.284;7.238;2023-12-22T21:25:18;4.05;;;1.42;;
16430;SDS011;8325;49.284;7.238;2023-12-22T21:29:31;5.43;;;1.40;;
16430;SDS011;8325;49.284;7.238;2023-12-22T21:33:44;4.82;;;1.48;;
16430;SDS011;8325;49.284;7.238;2023-12-22T21:37:56;3.00;;;1.50;;
16430;SDS011;8325;49.284;7.238;2023-12-22T21:42:08;4.82;;;1.50;;
16430;SDS011;8325;49.284;7.238;2023-12-22T21:46:19;3.17;;;1.20;;
16430;SDS011;8325;49.284;7.238;2023-12-22T21:50:32;4.35;;;1.48;;
16430;SDS011;8325;49.284;7.238;2023-12-22T21:54:44;6.22;;;1.50;;
16430;SDS011;8325;49.284;7.238;2023-12-22T21:58:56;4.28;;;1.70;;
16430;SDS011;8325;49.284;7.238;2023-12-22T22:03:07;3.83;;;1.50;;
16430;SDS011;8325;49.284;7.238;2023-12-22T22:07:19;5.55;;;1.90;;
16430;SDS011;8325;49.284;7.238;2023-12-22T22:11:31;6.65;;;1.55;;
16430;SDS011;8325;49.284;7.238;2023-12-22T22:15:43;8.63;;;1.70;;
16430;SDS011;8325;49.284;7.238;2023-12-22T22:19:54;4.60;;;1.60;;
16430;SDS011;8325;49.284;7.238;2023-12-22T22:24:06;3.38;;;1.40;;
16430;SDS011;8325;49.284;7.238;2023-12-22T22:28:18;4.63;;;1.70;;
